Time;durP1;ratioP1;P1;durP2;ratioP2;P2;SDS_P1;SDS_P2;PMS_P1;PMS_P2;Temp;Humidity;BMP_temperature;BMP_pressure;BME280_temperature;BME280_humidity;BME280_pressure;Samples;Min_cycle;Max_cycle;Signal;HPM_P1;HPM_P2
2023/04/07 00:00:17;;;;;;;13.75;9.55;;;3.80;80.60;;;;;;7608372;19;21447;-78
2023/04/07 00:02:49;;;;;;;14.45;9.30;;;3.70;81.00;;;;;;7596225;19;20097;-78
2023/04/07 00:05:21;;;;;;;15.50;9.20;;;3.60;81.00;;;;;;7599598;19;20019;-78
2023/04/07 00:07:54;;;;;;;14.82;8.90;;;3.50;81.20;;;;;;7578283;19;20111;-78
2023/04/07 00:10:28;;;;;;;14.60;8.80;;;3.50;81.90;;;;;;7597836;19;20014;-77
2023/04/07 00:13:00;;;;;;;17.00;9.48;;;3.50;83.50;;;;;;7598834;19;20090;-77
2023/04/07 00:15:33;;;;;;;14.27;9.27;;;3.50;82.00;;;;;;7591426;19;20137;-77
2023/04/07 00:18:05;;;;;;;17.60;10.35;;;3.50;82.20;;;;;;7583385;19;20082;-78
2023/04/07 00:20:37;;;;;;;21.63;10.60;;;3.50;82.20;;;;;;7599126;19;20058;-77
2023/04/07 00:23:09;;;;;;;15.57;10.40;;;3.50;82.60;;;;;;7589063;19;20499;-77
2023/04/07 00:25:42;;;;;;;16.75;9.43;;;3.50;83.30;;;;;;7581508;19;20007;-78
2023/04/07 00:28:14;;;;;;;13.95;9.73;;;3.50;83.50;;;;;;7554522;19;20070;-79
2023/04/07 00:30:47;;;;;;;18.15;10.70;;;3.40;83.80;;;;;;7581195;19;20535;-77
2023/04/07 00:33:19;;;;;;;22.02;10.07;;;3.40;84.50;;;;;;7589525;19;20006;-78
2023/04/07 00:35:53;;;;;;;13.88;9.20;;;3.50;84.50;;;;;;7583820;19;20184;-78
2023/04/07 00:38:25;;;;;;;14.27;9.03;;;3.50;84.90;;;;;;7590767;19;20015;-77
2023/04/07 00:40:58;;;;;;;17.38;10.27;;;3.40;85.20;;;;;;7596170;19;20380;-78
2023/04/07 00:43:30;;;;;;;14.10;8.93;;;3.40;85.60;;;;;;7599584;19;20010;-78
2023/04/07 00:46:03;;;;;;;15.18;9.95;;;3.30;86.50;;;;;;7598952;19;20010;-77
2023/04/07 00:48:36;;;;;;;13.70;9.32;;;3.40;85.70;;;;;;7608584;19;21007;-78
2023/04/07 00:51:08;;;;;;;16.63;9.63;;;3.50;86.30;;;;;;7598500;19;20653;-77
2023/04/07 00:53:40;;;;;;;17.08;9.45;;;3.50;86.40;;;;;;7588160;19;20023;-77
2023/04/07 00:56:13;;;;;;;16.17;10.10;;;3.40;86.60;;;;;;7592930;19;20014;-78
2023/04/07 00:58:45;;;;;;;15.73;9.02;;;3.40;87.00;;;;;;7596074;19;20419;-78
2023/04/07 01:01:54;;;;;;;17.25;9.77;;;3.30;87.30;;;;;;7596520;19;20015;-78
2023/04/07 01:04:42;;;;;;;17.58;9.55;;;3.30;88.20;;;;;;7611382;19;20007;-78
2023/04/07 01:07:22;;;;;;;16.60;9.52;;;3.30;89.10;;;;;;7602653;19;20015;-77
2023/04/07 01:10:07;;;;;;;16.90;9.70;;;3.40;87.00;;;;;;7584690;19;22842;-77
2023/04/07 01:12:52;;;;;;;19.20;10.30;;;3.60;85.30;;;;;;7572087;19;20015;-78
2023/04/07 01:15:29;;;;;;;17.92;9.70;;;3.70;84.30;;;;;;7590215;19;20018;-78
2023/04/07 01:18:12;;;;;;;18.13;8.93;;;3.80;83.60;;;;;;7588532;19;20052;-76
2023/04/07 01:20:46;;;;;;;18.88;9.88;;;3.80;83.40;;;;;;7612824;19;20021;-77
2023/04/07 01:24:00;;;;;;;15.13;9.02;;;4.00;82.90;;;;;;7609744;19;20140;-77
2023/04/07 01:26:33;;;;;;;18.83;10.18;;;3.90;82.50;;;;;;7589102;19;20014;-76
2023/04/07 01:29:05;;;;;;;15.20;8.98;;;4.00;82.20;;;;;;7590262;19;20516;-77
2023/04/07 01:31:40;;;;;;;19.73;9.27;;;4.00;81.80;;;;;;7582695;19;20010;-77
2023/04/07 01:34:14;;;;;;;15.60;7.95;;;4.00;82.00;;;;;;7593841;19;20094;-77
2023/04/07 01:36:48;;;;;;;14.85;9.10;;;4.00;81.90;;;;;;7599972;19;20026;-77
2023/04/07 01:39:22;;;;;;;16.83;9.40;;;4.00;82.10;;;;;;7602665;19;20056;-78
2023/04/07 01:41:56;;;;;;;15.45;9.10;;;4.00;81.50;;;;;;7588139;19;20106;-77
2023/04/07 01:44:32;;;;;;;18.63;10.05;;;4.00;81.50;;;;;;7595825;19;20025;-77
2023/04/07 01:47:05;;;;;;;19.23;9.43;;;4.10;81.60;;;;;;7585461;19;21079;-77
2023/04/07 01:49:40;;;;;;;17.70;9.25;;;4.10;81.80;;;;;;7604854;19;20022;-77
2023/04/07 01:52:12;;;;;;;15.52;8.85;;;4.10;81.80;;;;;;7597191;19;20929;-78
2023/04/07 01:54:45;;;;;;;18.97;9.70;;;4.10;81.90;;;;;;7595018;19;20030;-78
2023/04/07 01:57:17;;;;;;;15.15;8.77;;;4.20;82.10;;;;;;7583229;19;20146;-79
2023/04/07 01:59:52;;;;;;;15.95;9.07;;;4.00;82.50;;;;;;7584236;19;20017;-77
2023/04/07 02:02:28;;;;;;;14.93;8.80;;;4.00;82.70;;;;;;7589168;19;20048;-76
2023/04/07 02:05:04;;;;;;;17.33;9.18;;;4.10;82.40;;;;;;7590157;19;20032;-78
2023/04/07 02:07:48;;;;;;;15.13;8.85;;;4.10;82.30;;;;;;7593035;19;20025;-77
2023/04/07 02:10:22;;;;;;;14.87;8.90;;;4.10;82.70;;;;;;7581822;19;20015;-78
2023/04/07 02:12:59;;;;;;;17.88;8.60;;;4.00;83.70;;;;;;7582722;19;20021;-78
2023/04/07 02:15:34;;;;;;;13.82;8.25;;;4.00;84.30;;;;;;7573414;19;20085;-77
2023/04/07 02:18:09;;;;;;;14.13;9.00;;;3.90;85.30;;;;;;7595143;19;20022;-77
2023/04/07 02:20:43;;;;;;;15.00;8.77;;;3.80;85.90;;;;;;7605516;19;20010;-78
2023/04/07 02:23:16;;;;;;;15.32;8.68;;;3.80;86.70;;;;;;7581155;19;20848;-78
2023/04/07 02:25:48;;;;;;;16.10;9.60;;;3.80;87.00;;;;;;7595457;19;20022;-77
2023/04/07 02:28:20;;;;;;;17.50;9.02;;;3.80;87.90;;;;;;7580607;19;20562;-77
2023/04/07 02:30:52;;;;;;;15.18;8.82;;;3.70;88.30;;;;;;7594919;19;20100;-78
2023/04/07 02:33:24;;;;;;;14.00;7.55;;;3.70;88.00;;;;;;7574557;19;20036;-78
2023/04/07 02:35:57;;;;;;;13.80;9.07;;;3.80;87.20;;;;;;7598963;19;20525;-75
2023/04/07 02:38:30;;;;;;;15.25;9.30;;;3.90;87.90;;;;;;7597824;19;20468;-79
2023/04/07 02:41:02;;;;;;;;;;;3.90;89.20;;;;;;7579722;19;20018;-77
2023/04/07 02:43:35;;;;;;;13.05;7.90;;;4.00;89.20;;;;;;7545873;19;19972;-77
2023/04/07 02:46:07;;;;;;;14.80;8.30;;;4.00;90.00;;;;;;7574774;19;20022;-77
2023/04/07 02:48:40;;;;;;;11.70;7.28;;;4.10;90.10;;;;;;7568303;19;20052;-77
2023/04/07 02:51:14;;;;;;;15.77;7.47;;;4.10;90.70;;;;;;7545020;19;20010;-77
2023/04/07 02:53:46;;;;;;;14.77;7.35;;;4.20;91.80;;;;;;7568174;19;21299;-78
2023/04/07 02:56:18;;;;;;;12.02;7.55;;;4.40;94.10;;;;;;7574079;19;20022;-76
2023/04/07 02:58:50;;;;;;;11.63;6.85;;;4.50;95.80;;;;;;7571763;19;21120;-77
2023/04/07 03:01:23;;;;;;;12.65;7.00;;;4.60;97.20;;;;;;7560684;19;20020;-77
2023/04/07 03:03:55;;;;;;;14.30;7.65;;;4.80;98.00;;;;;;7552853;19;20056;-77
2023/04/07 03:06:30;;;;;;;10.07;5.18;;;4.90;99.20;;;;;;7580932;19;20015;-78
2023/04/07 03:09:11;;;;;;;11.95;5.95;;;5.20;98.70;;;;;;7566836;19;20238;-77
2023/04/07 03:11:43;;;;;;;11.60;6.70;;;5.10;99.80;;;;;;7588508;19;20021;-76
2023/04/07 03:14:16;;;;;;;20.90;6.68;;;5.10;99.90;;;;;;7594885;19;20030;-77
2023/04/07 03:16:51;;;;;;;10.23;5.22;;;5.20;99.90;;;;;;7596464;19;20098;-79
2023/04/07 03:19:23;;;;;;;10.80;7.05;;;5.20;99.90;;;;;;7586374;19;20034;-78
2023/04/07 03:21:56;;;;;;;15.38;7.55;;;5.30;99.90;;;;;;7579062;19;20025;-76
2023/04/07 03:24:28;;;;;;;13.57;7.22;;;5.30;99.90;;;;;;7586770;19;20033;-76
2023/04/07 03:27:01;;;;;;;14.38;6.95;;;5.20;99.90;;;;;;7575793;19;20038;-77
2023/04/07 03:29:43;;;;;;;12.82;6.75;;;5.30;99.90;;;;;;7584794;19;20944;-76
2023/04/07 03:32:17;;;;;;;9.57;5.68;;;5.20;99.90;;;;;;7576799;19;20025;-77
2023/04/07 03:34:50;;;;;;;14.45;7.88;;;5.30;99.90;;;;;;7582226;19;20621;-75
2023/04/07 03:37:25;;;;;;;12.90;7.43;;;5.20;99.90;;;;;;7575014;19;20034;-79
2023/04/07 03:39:58;;;;;;;;;;;5.20;99.90;;;;;;7603937;19;20368;-77
2023/04/07 03:42:35;;;;;;;14.48;7.22;;;5.20;99.90;;;;;;7589091;19;19919;-78
2023/04/07 03:45:10;;;;;;;16.05;7.93;;;5.20;99.90;;;;;;7593176;19;20012;-79
2023/04/07 03:47:47;;;;;;;12.35;7.20;;;5.20;99.90;;;;;;7577074;19;20018;-79
2023/04/07 03:50:20;;;;;;;12.88;7.60;;;5.20;99.90;;;;;;7570847;19;20025;-78
2023/04/07 03:53:10;;;;;;;14.82;7.90;;;5.20;99.90;;;;;;7575573;19;20025;-78
2023/04/07 03:55:43;;;;;;;13.30;8.20;;;5.10;99.90;;;;;;7585811;19;20011;-78
2023/04/07 03:58:24;;;;;;;16.20;8.82;;;5.20;99.90;;;;;;7584528;19;20017;-79
2023/04/07 04:00:56;;;;;;;13.77;7.72;;;5.10;99.90;;;;;;7588963;19;21015;-77
2023/04/07 04:03:28;;;;;;;13.70;7.78;;;5.10;99.90;;;;;;7573438;19;20019;-78
2023/04/07 04:06:20;;;;;;;15.30;7.90;;;5.10;99.90;;;;;;7588780;19;20649;-79
2023/04/07 04:08:54;;;;;;;;;;;5.10;99.90;;;;;;7592669;19;20078;-77
2023/04/07 04:11:27;;;;;;;16.85;7.40;;;5.30;99.90;;;;;;7563680;19;19930;-77
2023/04/07 04:14:03;;;;;;;16.98;8.57;;;5.20;99.90;;;;;;7566530;19;20525;-75
2023/04/07 04:16:36;;;;;;;;;;;5.10;99.90;;;;;;7576916;19;20014;-75
2023/04/07 04:19:16;;;;;;;14.77;8.43;;;5.10;99.90;;;;;;7593889;19;19925;-80
2023/04/07 04:21:49;;;;;;;16.50;8.48;;;5.10;99.90;;;;;;7587480;19;21940;-76
2023/04/07 04:24:22;;;;;;;15.88;8.07;;;5.10;99.90;;;;;;7602261;19;20006;-77
2023/04/07 04:26:55;;;;;;;16.02;8.98;;;5.00;99.90;;;;;;7584790;19;20022;-76
2023/04/07 04:29:28;;;;;;;16.80;8.57;;;5.00;99.90;;;;;;7585214;19;20014;-77
2023/04/07 04:32:05;;;;;;;18.20;8.20;;;5.10;99.90;;;;;;7596905;19;20057;-76
2023/04/07 04:34:40;;;;;;;15.52;9.45;;;5.10;99.90;;;;;;7584419;19;20114;-77
2023/04/07 04:37:14;;;;;;;13.25;8.73;;;5.10;99.90;;;;;;7563614;19;21112;-76
2023/04/07 04:39:49;;;;;;;13.80;8.70;;;5.00;99.90;;;;;;7588252;19;20021;-76
2023/04/07 04:42:26;;;;;;;14.13;8.10;;;5.00;99.90;;;;;;7580672;19;21704;-78
2023/04/07 04:45:00;;;;;;;15.65;8.68;;;5.10;99.90;;;;;;7581519;19;20014;-78
2023/04/07 04:47:34;;;;;;;16.23;8.48;;;5.10;99.90;;;;;;7548494;19;20018;-76
2023/04/07 04:50:08;;;;;;;15.45;8.55;;;5.10;99.90;;;;;;7583328;19;20063;-79
2023/04/07 04:52:42;;;;;;;14.90;8.32;;;5.00;99.90;;;;;;7575342;19;20007;-77
2023/04/07 04:55:22;;;;;;;14.23;8.07;;;5.00;99.90;;;;;;7577621;19;20474;-75
2023/04/07 04:57:56;;;;;;;14.25;7.78;;;5.00;99.90;;;;;;7558306;19;20047;-78
2023/04/07 05:00:38;;;;;;;15.63;8.43;;;5.10;99.90;;;;;;7591664;19;20029;-77
2023/04/07 05:03:12;;;;;;;19.35;9.68;;;5.00;99.90;;;;;;7573485;19;20051;-77
2023/04/07 05:05:49;;;;;;;19.42;9.02;;;5.00;99.90;;;;;;7578732;19;20070;-78
2023/04/07 05:08:26;;;;;;;19.45;12.13;;;5.00;99.90;;;;;;7592213;19;20017;-77
2023/04/07 05:10:59;;;;;;;18.30;9.75;;;5.00;99.90;;;;;;7563723;19;20093;-78
2023/04/07 05:13:36;;;;;;;18.35;9.65;;;5.00;99.90;;;;;;7584788;19;20109;-78
2023/04/07 05:16:08;;;;;;;16.08;9.40;;;5.10;99.90;;;;;;7586633;19;20022;-78
2023/04/07 05:18:41;;;;;;;17.80;10.10;;;5.00;99.90;;;;;;7584014;19;20101;-80
2023/04/07 05:21:13;;;;;;;16.05;9.20;;;5.00;99.90;;;;;;7579913;19;20919;-76
2023/04/07 05:23:45;;;;;;;19.45;10.55;;;5.00;99.90;;;;;;7588938;19;20018;-82
2023/04/07 05:26:18;;;;;;;18.60;10.02;;;5.00;99.90;;;;;;7580116;19;21100;-76
2023/04/07 05:28:50;;;;;;;15.13;8.82;;;5.00;99.90;;;;;;7589361;19;20704;-80
2023/04/07 05:31:26;;;;;;;21.90;9.18;;;5.10;99.90;;;;;;7590450;19;20022;-79
2023/04/07 05:34:01;;;;;;;16.85;8.88;;;5.10;99.90;;;;;;7575005;19;20396;-78
2023/04/07 05:36:39;;;;;;;16.40;9.23;;;5.20;99.90;;;;;;7586650;19;20019;-78
2023/04/07 05:39:11;;;;;;;17.45;10.10;;;5.10;99.90;;;;;;7585001;19;20022;-79
2023/04/07 05:41:44;;;;;;;22.77;10.50;;;5.10;99.90;;;;;;7591944;19;20022;-78
2023/04/07 05:44:18;;;;;;;16.55;9.88;;;5.10;99.90;;;;;;7581595;19;20477;-77
2023/04/07 05:46:52;;;;;;;20.92;10.68;;;5.10;99.90;;;;;;7598291;19;20540;-77
2023/04/07 05:49:26;;;;;;;17.55;9.70;;;5.10;99.90;;;;;;7579251;19;20018;-77
2023/04/07 05:52:15;;;;;;;17.23;9.75;;;5.10;99.90;;;;;;7591240;19;20021;-77
2023/04/07 05:54:54;;;;;;;17.88;9.27;;;5.10;99.90;;;;;;7593004;19;20015;-76
2023/04/07 05:57:30;;;;;;;17.02;9.55;;;5.00;99.90;;;;;;7602439;19;20007;-79
2023/04/07 06:00:04;;;;;;;17.88;8.18;;;5.00;99.90;;;;;;7578345;19;20011;-77
2023/04/07 06:02:45;;;;;;;21.75;11.23;;;5.10;99.90;;;;;;7585870;19;20078;-77
2023/04/07 06:05:22;;;;;;;17.17;9.88;;;5.00;99.90;;;;;;7588313;19;20029;-78
2023/04/07 06:07:57;;;;;;;21.45;10.70;;;5.10;99.90;;;;;;7597782;19;20025;-78
2023/04/07 06:10:32;;;;;;;22.05;10.45;;;5.00;99.90;;;;;;7601797;19;20017;-77
2023/04/07 06:13:04;;;;;;;19.60;10.50;;;5.10;99.90;;;;;;7605715;19;20015;-78
2023/04/07 06:15:36;;;;;;;18.55;10.05;;;5.00;99.90;;;;;;7576111;19;20015;-78
2023/04/07 06:18:08;;;;;;;18.13;7.80;;;5.10;99.90;;;;;;7592796;19;20018;-78
2023/04/07 06:20:40;;;;;;;20.08;10.13;;;5.20;99.90;;;;;;7577361;19;20053;-79
2023/04/07 06:23:13;;;;;;;17.63;9.85;;;5.20;99.90;;;;;;7600422;19;20058;-79
2023/04/07 06:25:46;;;;;;;19.52;10.00;;;5.30;99.90;;;;;;7589252;19;20654;-77
2023/04/07 06:28:19;;;;;;;20.73;11.32;;;5.30;99.90;;;;;;7583763;19;20050;-79
2023/04/07 06:30:52;;;;;;;23.20;11.80;;;5.30;99.90;;;;;;7596832;19;20007;-78
2023/04/07 06:33:27;;;;;;;21.60;10.50;;;5.40;99.90;;;;;;7595902;19;20042;-78
2023/04/07 06:36:01;;;;;;;18.50;10.63;;;5.50;99.90;;;;;;7533317;19;20061;-79
2023/04/07 06:38:34;;;;;;;24.13;11.40;;;5.50;99.90;;;;;;7557807;19;20014;-77
2023/04/07 06:41:10;;;;;;;19.65;10.60;;;5.50;99.90;;;;;;7578147;19;20014;-77
2023/04/07 06:43:43;;;;;;;19.52;10.88;;;5.50;99.90;;;;;;7583738;19;20017;-79
2023/04/07 06:46:17;;;;;;;19.00;11.70;;;5.60;99.90;;;;;;7571302;19;20018;-78
2023/04/07 06:48:49;;;;;;;20.48;11.20;;;5.60;99.90;;;;;;7553993;19;20086;-77
2023/04/07 06:51:21;;;;;;;18.08;10.00;;;5.70;99.90;;;;;;7573238;19;20043;-78
2023/04/07 06:53:54;;;;;;;16.08;10.40;;;5.80;99.90;;;;;;7585260;19;20015;-77
2023/04/07 06:56:26;;;;;;;15.68;9.60;;;5.90;99.90;;;;;;7586225;19;20022;-78
2023/04/07 06:58:58;;;;;;;18.58;10.90;;;6.00;99.90;;;;;;7531877;19;20930;-78
2023/04/07 07:01:30;;;;;;;17.00;10.02;;;6.00;99.90;;;;;;7545775;19;20022;-77
2023/04/07 07:04:04;;;;;;;15.82;9.73;;;6.10;99.90;;;;;;7569598;19;20046;-77
2023/04/07 07:06:36;;;;;;;;;;;6.10;99.90;;;;;;7571033;19;20745;-78
2023/04/07 07:09:12;;;;;;;18.33;10.40;;;6.20;99.90;;;;;;7576669;19;21176;-78
2023/04/07 07:11:44;;;;;;;16.45;10.50;;;6.20;99.90;;;;;;7544354;19;20010;-77
2023/04/07 07:14:17;;;;;;;17.77;10.77;;;6.30;99.90;;;;;;7565213;19;20022;-79
2023/04/07 07:16:49;;;;;;;17.23;10.55;;;6.30;99.90;;;;;;7565392;19;20022;-78
2023/04/07 07:19:21;;;;;;;18.83;11.10;;;6.40;99.90;;;;;;7587057;19;20022;-78
2023/04/07 07:21:54;;;;;;;17.42;10.57;;;6.60;99.90;;;;;;7552843;19;20018;-78
2023/04/07 07:24:28;;;;;;;17.38;9.68;;;6.60;99.90;;;;;;7592123;19;20686;-76
2023/04/07 07:27:01;;;;;;;17.77;10.45;;;6.80;99.90;;;;;;7558321;19;20043;-77
2023/04/07 07:29:33;;;;;;;15.60;10.38;;;6.80;99.90;;;;;;7574798;19;20006;-76
2023/04/07 07:32:05;;;;;;;15.50;10.07;;;6.90;99.90;;;;;;7587316;19;20039;-75
2023/04/07 07:34:37;;;;;;;17.73;9.88;;;7.00;99.90;;;;;;7575019;19;20018;-75
2023/04/07 07:37:11;;;;;;;23.38;11.45;;;7.20;99.90;;;;;;7573154;19;20014;-76
2023/04/07 07:39:43;;;;;;;;;;;7.20;99.90;;;;;;7549196;19;20385;-75
2023/04/07 07:42:15;;;;;;;17.95;10.40;;;7.20;99.90;;;;;;7582140;19;19930;-77
2023/04/07 07:44:47;;;;;;;18.27;10.48;;;7.20;99.90;;;;;;7577752;19;20519;-76
2023/04/07 07:47:20;;;;;;;17.10;10.45;;;7.30;99.90;;;;;;7561016;19;20007;-77
2023/04/07 07:49:53;;;;;;;16.85;9.93;;;7.40;99.90;;;;;;7587925;19;20014;-75
2023/04/07 07:52:25;;;;;;;13.45;8.95;;;7.50;99.90;;;;;;7583821;19;20010;-74
2023/04/07 07:54:58;;;;;;;16.55;9.65;;;7.50;99.90;;;;;;7578708;19;20022;-75
2023/04/07 07:57:30;;;;;;;17.40;10.05;;;7.50;99.90;;;;;;7551747;19;20831;-75
2023/04/07 08:00:03;;;;;;;20.60;11.27;;;7.50;99.90;;;;;;7575992;19;20010;-75
2023/04/07 08:02:44;;;;;;;15.65;9.68;;;7.50;99.90;;;;;;7577340;19;20010;-75
2023/04/07 08:05:16;;;;;;;18.40;10.50;;;7.60;99.90;;;;;;7508826;19;20025;-76
2023/04/07 08:07:48;;;;;;;14.20;9.57;;;7.60;99.90;;;;;;7523660;19;20610;-75
2023/04/07 08:10:24;;;;;;;17.20;9.13;;;7.70;99.90;;;;;;7528611;19;20036;-76
2023/04/07 08:12:56;;;;;;;15.20;9.55;;;7.70;98.10;;;;;;7604331;19;20019;-75
2023/04/07 08:15:28;;;;;;;17.15;9.35;;;7.70;97.80;;;;;;7582049;19;20022;-76
2023/04/07 08:18:03;;;;;;;16.60;10.13;;;7.70;97.60;;;;;;7571082;19;20014;-74
2023/04/07 08:20:35;;;;;;;16.90;9.18;;;7.70;97.70;;;;;;7582426;19;20620;-78
2023/04/07 08:23:07;;;;;;;15.20;9.88;;;7.70;96.50;;;;;;7594787;19;20014;-76
2023/04/07 08:25:39;;;;;;;14.82;8.73;;;7.70;96.20;;;;;;7591801;19;20010;-75
2023/04/07 08:28:11;;;;;;;15.23;10.02;;;7.80;95.30;;;;;;7580123;19;20011;-75
2023/04/07 08:30:44;;;;;;;16.63;9.48;;;7.90;95.90;;;;;;7556341;19;20170;-74
2023/04/07 08:33:16;;;;;;;15.77;9.45;;;8.00;94.40;;;;;;7568872;19;20661;-75
2023/04/07 08:35:48;;;;;;;16.58;9.35;;;8.20;94.40;;;;;;7587071;19;20026;-75
2023/04/07 08:38:21;;;;;;;14.07;9.25;;;8.30;93.70;;;;;;7547138;19;20767;-76
2023/04/07 08:41:01;;;;;;;14.30;9.98;;;8.30;93.00;;;;;;7556945;19;20011;-75
2023/04/07 08:43:37;;;;;;;19.80;10.77;;;8.40;91.90;;;;;;7581125;19;20632;-77
2023/04/07 08:46:11;;;;;;;15.73;8.85;;;8.50;93.30;;;;;;7600838;19;20014;-77
2023/04/07 08:48:44;;;;;;;16.23;10.35;;;8.60;91.40;;;;;;7583085;19;20618;-78
2023/04/07 08:51:26;;;;;;;15.13;9.80;;;8.60;90.50;;;;;;7571072;19;20049;-77
2023/04/07 08:54:08;;;;;;;13.57;8.30;;;8.50;90.50;;;;;;7582914;19;20688;-78
2023/04/07 08:56:42;;;;;;;17.52;9.40;;;8.60;90.70;;;;;;7571413;19;20026;-73
2023/04/07 08:59:17;;;;;;;17.10;9.13;;;8.80;91.00;;;;;;7592466;19;20014;-75
2023/04/07 09:01:50;;;;;;;15.07;9.35;;;9.00;90.60;;;;;;7572877;19;20018;-76
2023/04/07 09:04:23;;;;;;;13.43;9.00;;;9.20;88.70;;;;;;7553972;19;20019;-78
2023/04/07 09:06:56;;;;;;;15.15;9.63;;;9.20;88.20;;;;;;7582020;19;20050;-76
2023/04/07 09:09:28;;;;;;;15.23;8.75;;;9.30;87.20;;;;;;7592620;19;21140;-76
2023/04/07 09:12:00;;;;;;;14.27;8.93;;;9.40;87.10;;;;;;7573348;19;20011;-76
2023/04/07 09:14:32;;;;;;;16.40;9.00;;;9.40;86.40;;;;;;7575208;19;20007;-77
2023/04/07 09:17:04;;;;;;;12.70;8.25;;;9.50;86.50;;;;;;7585576;19;20097;-77
2023/04/07 09:19:37;;;;;;;13.48;8.18;;;9.50;84.80;;;;;;7597069;19;20634;-75
2023/04/07 09:22:11;;;;;;;14.43;9.38;;;9.60;85.60;;;;;;7600816;19;20041;-77
2023/04/07 09:24:43;;;;;;;17.40;8.98;;;9.70;82.70;;;;;;7583150;19;20022;-77
2023/04/07 09:27:17;;;;;;;14.18;8.55;;;9.70;83.30;;;;;;7596377;19;20022;-76
2023/04/07 09:29:50;;;;;;;17.27;8.93;;;9.80;83.30;;;;;;7587723;19;20026;-76
2023/04/07 09:32:37;;;;;;;17.80;10.05;;;9.80;83.40;;;;;;7580967;19;20011;-76
2023/04/07 09:35:10;;;;;;;15.20;9.30;;;9.70;83.70;;;;;;7585125;19;20109;-75
2023/04/07 09:37:42;;;;;;;12.70;8.73;;;9.80;83.40;;;;;;7580162;19;20418;-75
2023/04/07 09:40:26;;;;;;;16.27;9.00;;;9.70;84.00;;;;;;7576394;19;20021;-76
2023/04/07 09:42:59;;;;;;;;;;;9.80;83.10;;;;;;7554012;19;20015;-75
2023/04/07 09:45:32;;;;;;;15.70;8.40;;;9.80;82.30;;;;;;7561935;19;19926;-75
2023/04/07 09:48:18;;;;;;;18.38;9.38;;;10.00;83.40;;;;;;7571808;19;20779;-76
2023/04/07 09:50:50;;;;;;;12.52;8.35;;;10.10;82.30;;;;;;7576155;19;20579;-77
2023/04/07 09:53:41;;;;;;;12.10;8.83;;;10.20;79.70;;;;;;7593382;19;20018;-77
2023/04/07 09:56:15;;;;;;;16.17;8.77;;;10.10;80.30;;;;;;7594045;19;20378;-75
2023/04/07 09:58:52;;;;;;;13.57;8.80;;;10.20;81.20;;;;;;7595200;19;20021;-76
2023/04/07 10:01:24;;;;;;;14.55;9.02;;;10.20;77.80;;;;;;7573587;19;20014;-76
2023/04/07 10:03:57;;;;;;;12.15;8.25;;;10.00;78.40;;;;;;7579419;19;20021;-75
2023/04/07 10:06:30;;;;;;;13.43;8.27;;;10.00;78.40;;;;;;7591616;19;20072;-79
2023/04/07 10:09:02;;;;;;;14.43;8.50;;;10.00;77.40;;;;;;7604385;19;20018;-77
2023/04/07 10:11:36;;;;;;;12.68;8.65;;;10.10;77.00;;;;;;7583723;19;20030;-78
2023/04/07 10:14:11;;;;;;;13.63;8.48;;;10.20;77.30;;;;;;7593204;19;20022;-78
2023/04/07 10:16:45;;;;;;;12.55;8.23;;;10.20;75.20;;;;;;7558037;19;20098;-76
2023/04/07 10:19:18;;;;;;;11.70;8.23;;;10.10;75.10;;;;;;7577358;19;20018;-77
2023/04/07 10:21:53;;;;;;;12.15;8.27;;;10.20;75.70;;;;;;7572478;19;20046;-78
2023/04/07 10:24:28;;;;;;;14.27;8.65;;;10.50;75.70;;;;;;7566119;19;20097;-77
2023/04/07 10:27:06;;;;;;;14.50;8.40;;;10.30;74.10;;;;;;7578203;19;20912;-78
2023/04/07 10:29:41;;;;;;;13.70;7.97;;;10.30;74.90;;;;;;7573054;19;20511;-77
2023/04/07 10:32:14;;;;;;;12.40;8.32;;;10.40;75.20;;;;;;7588529;19;20056;-77
2023/04/07 10:34:47;;;;;;;13.90;8.57;;;10.50;74.50;;;;;;7595896;19;20026;-77
2023/04/07 10:37:21;;;;;;;15.27;8.52;;;10.70;73.70;;;;;;7601131;19;20098;-77
2023/04/07 10:40:18;;;;;;;12.68;8.70;;;10.90;74.20;;;;;;7597649;19;20024;-76
2023/04/07 10:42:50;;;;;;;13.68;8.07;;;11.10;72.70;;;;;;7587137;19;20011;-75
2023/04/07 10:45:52;;;;;;;11.23;8.10;;;11.30;72.70;;;;;;7597396;19;20018;-76
2023/04/07 10:48:27;;;;;;;12.52;7.65;;;11.40;72.50;;;;;;7606932;19;20011;-75
2023/04/07 10:51:06;;;;;;;11.18;7.78;;;11.50;70.90;;;;;;7597791;19;20019;-76
2023/04/07 10:54:14;;;;;;;12.80;8.10;;;11.60;70.20;;;;;;7534734;19;20018;-76
2023/04/07 10:57:01;;;;;;;17.33;7.40;;;11.50;69.60;;;;;;7548896;19;20154;-76
2023/04/07 10:59:33;;;;;;;9.88;7.50;;;11.50;70.60;;;;;;7575910;19;20032;-75
2023/04/07 11:02:11;;;;;;;13.70;7.78;;;11.70;69.70;;;;;;7588593;19;20034;-75
2023/04/07 11:04:45;;;;;;;12.65;7.88;;;12.10;70.20;;;;;;7601752;19;20014;-75
2023/04/07 11:07:18;;;;;;;15.57;7.95;;;12.10;70.00;;;;;;7609358;19;20106;-75
2023/04/07 11:10:08;;;;;;;12.40;8.00;;;12.10;67.50;;;;;;7588888;19;20014;-75
2023/04/07 11:12:41;;;;;;;11.65;7.63;;;12.20;67.70;;;;;;7589364;19;20010;-75
2023/04/07 11:15:23;;;;;;;11.10;7.55;;;12.20;68.30;;;;;;7577811;19;20033;-76
2023/04/07 11:18:15;;;;;;;10.30;7.75;;;12.10;69.20;;;;;;7582004;19;20010;-78
2023/04/07 11:20:52;;;;;;;12.98;8.68;;;11.90;68.10;;;;;;7581683;19;20027;-76
2023/04/07 11:23:26;;;;;;;13.90;8.27;;;11.70;68.50;;;;;;7586244;19;20025;-78
2023/04/07 11:26:01;;;;;;;;;;;11.80;69.10;;;;;;7578568;19;20049;-75
2023/04/07 11:28:36;;;;;;;14.65;7.47;;;11.90;69.60;;;;;;7594522;19;19933;-77
2023/04/07 11:31:09;;;;;;;11.70;7.65;;;12.00;68.60;;;;;;7590782;19;20022;-77
2023/04/07 11:33:42;;;;;;;17.80;8.55;;;12.20;68.20;;;;;;7591605;19;20029;-77
2023/04/07 11:36:25;;;;;;;11.00;8.15;;;12.40;66.00;;;;;;7590764;19;20010;-75
2023/04/07 11:38:58;;;;;;;12.80;8.07;;;12.30;66.20;;;;;;7592227;19;20028;-75
2023/04/07 11:41:32;;;;;;;13.48;8.55;;;12.40;67.40;;;;;;7585307;19;20029;-75
2023/04/07 11:44:05;;;;;;;;;;;12.50;66.00;;;;;;7602040;19;20667;-76
2023/04/07 11:46:57;;;;;;;11.57;7.55;;;12.60;65.30;;;;;;7609051;19;20377;-78
2023/04/07 11:49:31;;;;;;;11.00;7.90;;;12.40;64.80;;;;;;7598152;19;20018;-75
2023/04/07 11:52:05;;;;;;;;;;;12.20;65.10;;;;;;7587423;19;20014;-76
2023/04/07 11:54:49;;;;;;;;;;;11.90;66.10;;;;;;7591238;19;19918;-75
2023/04/07 11:57:26;;;;;;;13.93;7.90;;;11.70;67.90;;;;;;7578257;19;19954;-77
2023/04/07 12:00:08;;;;;;;14.98;7.78;;;11.60;67.50;;;;;;7593230;19;20018;-79
2023/04/07 12:02:41;;;;;;;12.70;7.45;;;11.70;67.70;;;;;;7590361;19;20021;-75
2023/04/07 12:05:14;;;;;;;11.57;7.73;;;11.80;67.00;;;;;;7589130;19;20025;-76
2023/04/07 12:07:54;;;;;;;12.85;7.43;;;11.90;66.60;;;;;;7591317;19;20038;-75
2023/04/07 12:10:26;;;;;;;11.93;7.93;;;12.40;67.50;;;;;;7587521;19;20017;-76
2023/04/07 12:12:58;;;;;;;11.50;7.93;;;13.20;65.70;;;;;;7597395;19;20014;-76
2023/04/07 12:15:30;;;;;;;11.50;8.00;;;13.90;63.10;;;;;;7597119;19;20018;-75
2023/04/07 12:18:03;;;;;;;12.43;8.38;;;14.30;62.20;;;;;;7577702;19;20018;-76
2023/04/07 12:20:35;;;;;;;11.00;7.93;;;14.20;60.70;;;;;;7580694;19;20047;-75
2023/04/07 12:23:08;;;;;;;11.65;8.02;;;14.30;61.20;;;;;;7597883;19;20017;-76
2023/04/07 12:25:40;;;;;;;9.75;7.22;;;14.30;60.60;;;;;;7588558;19;20018;-75
2023/04/07 12:28:12;;;;;;;12.50;7.95;;;14.40;60.60;;;;;;7597479;19;21197;-75
2023/04/07 12:30:45;;;;;;;9.55;7.65;;;14.40;60.30;;;;;;7579403;19;20022;-76
2023/04/07 12:33:17;;;;;;;11.43;7.75;;;14.40;59.90;;;;;;7605735;19;20018;-75
2023/04/07 12:35:49;;;;;;;11.77;7.70;;;14.30;60.40;;;;;;7593413;19;20018;-77
2023/04/07 12:38:21;;;;;;;9.90;7.28;;;14.20;61.20;;;;;;7585249;19;20025;-76
2023/04/07 12:40:53;;;;;;;13.23;7.68;;;14.20;60.60;;;;;;7582103;19;20030;-75
2023/04/07 12:43:25;;;;;;;11.75;8.05;;;13.90;61.40;;;;;;7582950;19;20623;-75
2023/04/07 12:45:58;;;;;;;11.38;7.70;;;13.80;60.40;;;;;;7558260;19;20037;-74
2023/04/07 12:48:30;;;;;;;14.30;7.30;;;13.70;60.60;;;;;;7584717;19;20605;-76
2023/04/07 12:51:02;;;;;;;11.98;7.00;;;13.50;60.40;;;;;;7585853;19;20034;-76
2023/04/07 12:53:35;;;;;;;11.30;7.07;;;13.50;60.60;;;;;;7584866;19;20043;-76
2023/04/07 12:56:07;;;;;;;13.57;8.48;;;13.40;61.50;;;;;;7586501;19;20874;-75
2023/04/07 12:58:40;;;;;;;21.45;8.82;;;13.40;62.30;;;;;;7576351;19;20638;-75
2023/04/07 13:01:13;;;;;;;14.65;7.38;;;13.30;62.50;;;;;;7568300;19;20022;-75
2023/04/07 13:03:45;;;;;;;15.55;8.55;;;13.30;62.80;;;;;;7578182;19;20031;-75
2023/04/07 13:06:18;;;;;;;10.85;7.75;;;13.20;61.50;;;;;;7574939;19;20472;-77
2023/04/07 13:08:50;;;;;;;14.63;8.52;;;13.10;61.40;;;;;;7567494;19;20019;-77
2023/04/07 13:11:23;;;;;;;15.50;9.23;;;12.90;63.70;;;;;;7569018;19;20022;-77
2023/04/07 13:13:55;;;;;;;13.50;9.43;;;12.80;64.30;;;;;;7575867;19;20009;-78
2023/04/07 13:16:30;;;;;;;16.38;9.23;;;12.70;64.40;;;;;;7562018;19;20021;-77
2023/04/07 13:19:03;;;;;;;13.88;9.05;;;12.60;64.70;;;;;;7531332;19;20987;-76
2023/04/07 13:21:35;;;;;;;12.85;9.25;;;12.50;65.60;;;;;;7567483;19;20022;-77
2023/04/07 13:24:18;;;;;;;15.15;9.15;;;12.50;65.80;;;;;;7538371;19;20010;-78